ADDS TAF Board (Experimental) INFO Settings
IDs: Format: Expanded Condensed

KPHX - Phoenix/Sky Harbor, AZ, US

Issued at 1128 UTC 28 Jul 2016
Updated at 1429 UTC 28 Jul 2016
Time1351Z 28/15Z 28/16Z 28/17Z 28/18Z 28/19Z 28/20Z 28/21Z 28/22Z 28/23Z 29/00Z 29/01Z 29/02Z 29/03Z
Type OBS PRVL PRVL PRVL PRVL PRVL PRVL PRVL PRVL PRVL PRVL PRVL PRVL PRVL
VIS 10 >6 >6 >6 >6 >6 >6 >6 >6 >6 >6 >6 >6 >6
CIG -- 250 250 250 250 250 250 -- -- -- -- -- -- 250
Cover FEW BKN BKN BKN BKN BKN BKN SCT SCT SCT SCT SCT SCT BKN
FltCat VFR VFR VFR VFR VFR VFR VFR VFR VFR VFR VFR VFR VFR VFR
WX -- -- -- -- -- -- -- -- -- -- -- -- -- --
WDir 150 130 130 130 130 130 130 260 260 260 260 260 260 VRB
WSpd 10 9 9 9 9 9 9 11 11 11 11 11 11 6
WGst 18 -- -- -- -- -- -- -- -- -- -- -- -- --
R07/25
XWnd -9 -6 -6 -6 -6 -6 -6 -2 -2 -2 -2 -2 -2 VRB
XGst -16 -- -- -- -- -- -- -- -- -- -- -- -- --
HWnd 5 7 7 7 7 7 7 -11 -11 -11 -11 -11 -11 VRB
HGst 9 -- -- -- -- -- -- -- -- -- -- -- -- --
R08/26
XWnd -9 -6 -6 -6 -6 -6 -6 -2 -2 -2 -2 -2 -2 VRB
XGst -16 -- -- -- -- -- -- -- -- -- -- -- -- --
HWnd 5 7 7 7 7 7 7 -11 -11 -11 -11 -11 -11 VRB
HGst 9 -- -- -- -- -- -- -- -- -- -- -- -- --

Raw TAF
KPHX 281128Z 2812/2912 13009KT P6SM BKN250
  FM282100 26011KT P6SM SCT250
  FM290300 VRB06KT P6SM SCT150 BKN250


Raw METAR
KPHX 281351Z 15010G18KT 10SM FEW140 FEW250 33/16 A2988 RMK AO2 SLP095 T03280161
KPHX 281251Z 12005KT 10SM FEW140 SCT200 32/17 A2987 RMK AO2 SLP092 T03170167
KPHX 281151Z 15015G21KT 10SM SCT200 33/16 A2986 RMK AO2 SLP087 T03280161 10389 20328 53021

METAR Board
Radar Display
Forecast Discussion

TAF Board Legend

Potential Impact
Threat None Slight Moderate High
Visibility (sm) ≥5.1 5.1>X≥3 3>X≥1 <1
Ceiling (100 ft) ≥30.1 30.1>X≥10 10>X≥5 <5
Wind Speed (kt) <10 10≤X<20 20≤X<30 ≥30
Wind Gust (kt) <15 15≤X<25 25≤X<35 ≥35
Weather No Wx Reported VCTS,-TS,-FZRA,SN TS,FZRA +TS,+FZRA,+SN